Terminal Aerodrome Forecast
Issued by NWS

Home | Current Version | Previous Version | Text Only | Print | Product List | Glossary On
Versions: 1 2 3 4 5 6 7 8 9 10 11 12 13 14 15 16 17 18 19 20 21 22 23 24 25 26 27 28
000
FTUS43 KIND 161120
TAFHUF
TAF
KHUF 161120Z 1612/1712 30010G20KT P6SM SCT200
     FM161400 31013G23KT P6SM BKN060
     FM161500 31014G22KT P6SM BKN022
     FM161700 31014G22KT P6SM BKN045
     FM170200 30006KT P6SM BKN090=

USA.gov is the U.S. government's official web portal to all federal, state and local government web resources and services.